sensor_id;sensor_type;location;lat;lon;timestamp;temperature;humidity
30678;DHT22;17437;47.188;8.896;2022-09-09T00:02:18;15.60;99.90
30678;DHT22;17437;47.188;8.896;2022-09-09T00:04:55;15.70;99.90
30678;DHT22;17437;47.188;8.896;2022-09-09T00:07:32;15.70;99.90
30678;DHT22;17437;47.188;8.896;2022-09-09T00:10:09;15.60;99.90
30678;DHT22;17437;47.188;8.896;2022-09-09T00:12:44;15.60;99.90
30678;DHT22;17437;47.188;8.896;2022-09-09T00:15:18;15.50;99.90
30678;DHT22;17437;47.188;8.896;2022-09-09T00:17:54;15.50;99.90
30678;DHT22;17437;47.188;8.896;2022-09-09T00:20:29;15.40;99.90
30678;DHT22;17437;47.188;8.896;2022-09-09T00:23:04;15.40;99.90
30678;DHT22;17437;47.188;8.896;2022-09-09T00:25:41;15.40;99.90
30678;DHT22;17437;47.188;8.896;2022-09-09T00:28:17;15.40;99.90
30678;DHT22;17437;47.188;8.896;2022-09-09T00:30:48;15.40;99.90
30678;DHT22;17437;47.188;8.896;2022-09-09T00:33:22;15.40;99.90
30678;DHT22;17437;47.188;8.896;2022-09-09T00:35:56;15.40;99.90
30678;DHT22;17437;47.188;8.896;2022-09-09T00:38:32;15.40;99.90
30678;DHT22;17437;47.188;8.896;2022-09-09T00:41:07;15.40;99.90
30678;DHT22;17437;47.188;8.896;2022-09-09T00:43:40;15.40;99.90
30678;DHT22;17437;47.188;8.896;2022-09-09T00:46:24;15.50;99.90
30678;DHT22;17437;47.188;8.896;2022-09-09T00:48:59;15.40;99.90
30678;DHT22;17437;47.188;8.896;2022-09-09T00:51:37;15.40;99.90
30678;DHT22;17437;47.188;8.896;2022-09-09T00:54:17;15.40;99.90
30678;DHT22;17437;47.188;8.896;2022-09-09T00:56:52;15.40;99.90
30678;DHT22;17437;47.188;8.896;2022-09-09T00:59:28;15.40;99.90
30678;DHT22;17437;47.188;8.896;2022-09-09T01:02:00;15.30;99.90
30678;DHT22;17437;47.188;8.896;2022-09-09T01:04:34;15.30;99.90
30678;DHT22;17437;47.188;8.896;2022-09-09T01:07:11;15.20;99.90
30678;DHT22;17437;47.188;8.896;2022-09-09T01:09:55;15.30;99.90
30678;DHT22;17437;47.188;8.896;2022-09-09T01:12:32;15.30;99.90
30678;DHT22;17437;47.188;8.896;2022-09-09T01:15:09;15.30;99.90
30678;DHT22;17437;47.188;8.896;2022-09-09T01:17:50;15.20;99.90
30678;DHT22;17437;47.188;8.896;2022-09-09T01:20:24;15.20;99.90
30678;DHT22;17437;47.188;8.896;2022-09-09T01:23:14;15.30;99.90
30678;DHT22;17437;47.188;8.896;2022-09-09T01:26:19;15.30;99.90
30678;DHT22;17437;47.188;8.896;2022-09-09T01:28:52;15.20;99.90
30678;DHT22;17437;47.188;8.896;2022-09-09T01:31:27;15.20;99.90
30678;DHT22;17437;47.188;8.896;2022-09-09T01:33:59;15.20;99.90
30678;DHT22;17437;47.188;8.896;2022-09-09T01:36:33;15.20;99.90
30678;DHT22;17437;47.188;8.896;2022-09-09T01:39:05;15.20;99.90
30678;DHT22;17437;47.188;8.896;2022-09-09T01:41:37;15.20;99.90
30678;DHT22;17437;47.188;8.896;2022-09-09T01:44:10;15.20;99.90
30678;DHT22;17437;47.188;8.896;2022-09-09T01:46:42;15.30;99.90
30678;DHT22;17437;47.188;8.896;2022-09-09T01:49:13;15.20;99.90
30678;DHT22;17437;47.188;8.896;2022-09-09T01:51:47;15.20;99.90
30678;DHT22;17437;47.188;8.896;2022-09-09T01:54:20;15.20;99.90
30678;DHT22;17437;47.188;8.896;2022-09-09T01:56:57;15.20;99.90
30678;DHT22;17437;47.188;8.896;2022-09-09T01:59:56;15.30;99.90
30678;DHT22;17437;47.188;8.896;2022-09-09T02:02:29;15.30;99.90
30678;DHT22;17437;47.188;8.896;2022-09-09T02:05:06;15.40;99.90
30678;DHT22;17437;47.188;8.896;2022-09-09T02:07:40;15.50;99.90
30678;DHT22;17437;47.188;8.896;2022-09-09T02:10:15;15.50;99.90
30678;DHT22;17437;47.188;8.896;2022-09-09T02:12:48;15.50;99.90
30678;DHT22;17437;47.188;8.896;2022-09-09T02:15:23;15.60;99.90
30678;DHT22;17437;47.188;8.896;2022-09-09T02:17:57;15.60;99.90
30678;DHT22;17437;47.188;8.896;2022-09-09T02:20:30;15.70;99.90
30678;DHT22;17437;47.188;8.896;2022-09-09T02:23:05;15.70;99.90
30678;DHT22;17437;47.188;8.896;2022-09-09T02:25:40;15.70;99.90
30678;DHT22;17437;47.188;8.896;2022-09-09T02:28:15;15.70;99.90
30678;DHT22;17437;47.188;8.896;2022-09-09T02:30:50;15.70;99.90
30678;DHT22;17437;47.188;8.896;2022-09-09T02:33:26;15.80;99.90
30678;DHT22;17437;47.188;8.896;2022-09-09T02:35:59;15.80;99.90
30678;DHT22;17437;47.188;8.896;2022-09-09T02:38:34;15.90;99.90
30678;DHT22;17437;47.188;8.896;2022-09-09T02:41:07;15.90;99.90
30678;DHT22;17437;47.188;8.896;2022-09-09T02:43:38;15.90;99.90
30678;DHT22;17437;47.188;8.896;2022-09-09T02:46:14;16.00;99.90
30678;DHT22;17437;47.188;8.896;2022-09-09T02:48:51;16.00;99.90
30678;DHT22;17437;47.188;8.896;2022-09-09T02:51:27;16.10;99.90
30678;DHT22;17437;47.188;8.896;2022-09-09T02:53:59;16.10;99.90
30678;DHT22;17437;47.188;8.896;2022-09-09T02:56:34;16.10;99.90
30678;DHT22;17437;47.188;8.896;2022-09-09T02:59:06;16.10;99.90
30678;DHT22;17437;47.188;8.896;2022-09-09T03:01:38;16.10;99.90
30678;DHT22;17437;47.188;8.896;2022-09-09T03:04:10;16.10;99.90
30678;DHT22;17437;47.188;8.896;2022-09-09T03:06:41;16.00;99.90
30678;DHT22;17437;47.188;8.896;2022-09-09T03:09:13;16.00;99.90
30678;DHT22;17437;47.188;8.896;2022-09-09T03:11:44;16.10;99.90
30678;DHT22;17437;47.188;8.896;2022-09-09T03:14:16;16.10;99.90
30678;DHT22;17437;47.188;8.896;2022-09-09T03:16:49;16.10;99.90
30678;DHT22;17437;47.188;8.896;2022-09-09T03:19:20;16.10;99.90
30678;DHT22;17437;47.188;8.896;2022-09-09T03:21:52;16.10;99.90
30678;DHT22;17437;47.188;8.896;2022-09-09T03:24:23;16.10;99.90
30678;DHT22;17437;47.188;8.896;2022-09-09T03:26:55;16.10;99.90
30678;DHT22;17437;47.188;8.896;2022-09-09T03:29:26;16.10;99.90
30678;DHT22;17437;47.188;8.896;2022-09-09T03:31:58;16.10;99.90
30678;DHT22;17437;47.188;8.896;2022-09-09T03:34:29;16.00;99.90
30678;DHT22;17437;47.188;8.896;2022-09-09T03:37:01;16.00;99.90
30678;DHT22;17437;47.188;8.896;2022-09-09T03:39:33;16.00;99.90
30678;DHT22;17437;47.188;8.896;2022-09-09T03:42:05;16.00;99.90
30678;DHT22;17437;47.188;8.896;2022-09-09T03:44:36;16.00;99.90
30678;DHT22;17437;47.188;8.896;2022-09-09T03:47:07;16.00;99.90
30678;DHT22;17437;47.188;8.896;2022-09-09T03:49:39;16.00;99.90
30678;DHT22;17437;47.188;8.896;2022-09-09T03:52:10;16.00;99.90
30678;DHT22;17437;47.188;8.896;2022-09-09T03:54:42;16.00;99.90
30678;DHT22;17437;47.188;8.896;2022-09-09T03:57:14;16.00;99.90
30678;DHT22;17437;47.188;8.896;2022-09-09T03:59:47;16.00;99.90
30678;DHT22;17437;47.188;8.896;2022-09-09T04:02:18;16.00;99.90
30678;DHT22;17437;47.188;8.896;2022-09-09T04:04:50;16.00;99.90
30678;DHT22;17437;47.188;8.896;2022-09-09T04:07:22;16.00;99.90
30678;DHT22;17437;47.188;8.896;2022-09-09T04:09:53;15.90;99.90
30678;DHT22;17437;47.188;8.896;2022-09-09T04:12:25;15.90;99.90
30678;DHT22;17437;47.188;8.896;2022-09-09T04:14:57;15.90;99.90
30678;DHT22;17437;47.188;8.896;2022-09-09T04:17:28;15.90;99.90
30678;DHT22;17437;47.188;8.896;2022-09-09T04:20:00;15.90;99.90
30678;DHT22;17437;47.188;8.896;2022-09-09T04:22:32;15.90;99.90
30678;DHT22;17437;47.188;8.896;2022-09-09T04:25:05;16.00;99.90
30678;DHT22;17437;47.188;8.896;2022-09-09T04:27:37;16.00;99.90
30678;DHT22;17437;47.188;8.896;2022-09-09T04:30:10;16.00;99.90
30678;DHT22;17437;47.188;8.896;2022-09-09T04:32:42;16.10;99.90
30678;DHT22;17437;47.188;8.896;2022-09-09T04:35:13;16.10;99.90
30678;DHT22;17437;47.188;8.896;2022-09-09T04:37:45;16.20;99.90
30678;DHT22;17437;47.188;8.896;2022-09-09T04:40:16;16.10;99.90
30678;DHT22;17437;47.188;8.896;2022-09-09T04:42:48;16.10;99.90
30678;DHT22;17437;47.188;8.896;2022-09-09T04:45:19;16.20;99.90
30678;DHT22;17437;47.188;8.896;2022-09-09T04:47:51;16.20;99.90
30678;DHT22;17437;47.188;8.896;2022-09-09T04:50:22;16.20;99.90
30678;DHT22;17437;47.188;8.896;2022-09-09T04:52:55;16.20;99.90
30678;DHT22;17437;47.188;8.896;2022-09-09T04:55:27;16.30;99.90
30678;DHT22;17437;47.188;8.896;2022-09-09T04:58:02;16.30;99.90
30678;DHT22;17437;47.188;8.896;2022-09-09T05:00:31;16.30;99.90
30678;DHT22;17437;47.188;8.896;2022-09-09T05:03:04;16.30;99.90
30678;DHT22;17437;47.188;8.896;2022-09-09T05:05:36;16.30;99.90
30678;DHT22;17437;47.188;8.896;2022-09-09T05:08:08;16.40;99.90
30678;DHT22;17437;47.188;8.896;2022-09-09T05:10:40;16.40;99.90
30678;DHT22;17437;47.188;8.896;2022-09-09T05:13:12;16.40;99.90
30678;DHT22;17437;47.188;8.896;2022-09-09T05:15:43;16.40;99.90
30678;DHT22;17437;47.188;8.896;2022-09-09T05:18:16;16.40;99.90
30678;DHT22;17437;47.188;8.896;2022-09-09T05:20:47;16.40;99.90
30678;DHT22;17437;47.188;8.896;2022-09-09T05:23:19;16.40;99.90
30678;DHT22;17437;47.188;8.896;2022-09-09T05:25:57;16.40;99.90
30678;DHT22;17437;47.188;8.896;2022-09-09T05:28:29;16.50;99.90
30678;DHT22;17437;47.188;8.896;2022-09-09T05:31:02;16.50;99.90
30678;DHT22;17437;47.188;8.896;2022-09-09T05:33:35;16.50;99.90
30678;DHT22;17437;47.188;8.896;2022-09-09T05:36:09;16.60;99.90
30678;DHT22;17437;47.188;8.896;2022-09-09T05:38:43;16.60;99.90
30678;DHT22;17437;47.188;8.896;2022-09-09T05:41:16;16.60;99.90
30678;DHT22;17437;47.188;8.896;2022-09-09T05:43:47;16.50;99.90
30678;DHT22;17437;47.188;8.896;2022-09-09T05:46:20;16.40;99.90
30678;DHT22;17437;47.188;8.896;2022-09-09T05:48:53;16.30;99.90
30678;DHT22;17437;47.188;8.896;2022-09-09T05:51:27;16.30;99.90
30678;DHT22;17437;47.188;8.896;2022-09-09T05:54:00;16.30;99.90
30678;DHT22;17437;47.188;8.896;2022-09-09T05:56:31;16.30;99.90
30678;DHT22;17437;47.188;8.896;2022-09-09T05:59:03;16.30;99.90
30678;DHT22;17437;47.188;8.896;2022-09-09T06:01:36;16.30;99.90
30678;DHT22;17437;47.188;8.896;2022-09-09T06:04:10;16.30;99.90
30678;DHT22;17437;47.188;8.896;2022-09-09T06:06:43;16.40;99.90
30678;DHT22;17437;47.188;8.896;2022-09-09T06:09:14;16.40;99.90
30678;DHT22;17437;47.188;8.896;2022-09-09T06:11:45;16.50;99.90
30678;DHT22;17437;47.188;8.896;2022-09-09T06:14:17;16.50;99.90
30678;DHT22;17437;47.188;8.896;2022-09-09T06:16:48;16.50;99.90
30678;DHT22;17437;47.188;8.896;2022-09-09T06:19:20;16.60;99.90
30678;DHT22;17437;47.188;8.896;2022-09-09T06:21:51;16.60;99.90
30678;DHT22;17437;47.188;8.896;2022-09-09T06:24:23;16.60;99.90
30678;DHT22;17437;47.188;8.896;2022-09-09T06:26:54;16.60;99.90
30678;DHT22;17437;47.188;8.896;2022-09-09T06:29:25;16.70;99.90
30678;DHT22;17437;47.188;8.896;2022-09-09T06:31:57;16.70;99.90
30678;DHT22;17437;47.188;8.896;2022-09-09T06:34:29;16.80;99.90
30678;DHT22;17437;47.188;8.896;2022-09-09T06:37:00;16.80;99.90
30678;DHT22;17437;47.188;8.896;2022-09-09T06:39:32;16.70;99.90
30678;DHT22;17437;47.188;8.896;2022-09-09T06:42:04;16.80;99.90
30678;DHT22;17437;47.188;8.896;2022-09-09T06:44:37;16.70;99.90
30678;DHT22;17437;47.188;8.896;2022-09-09T06:47:08;16.60;99.90
30678;DHT22;17437;47.188;8.896;2022-09-09T06:49:41;16.50;99.90
30678;DHT22;17437;47.188;8.896;2022-09-09T06:52:14;16.40;99.90
30678;DHT22;17437;47.188;8.896;2022-09-09T06:54:47;16.20;99.90
30678;DHT22;17437;47.188;8.896;2022-09-09T06:57:18;16.00;99.90
30678;DHT22;17437;47.188;8.896;2022-09-09T06:59:51;16.00;99.90
30678;DHT22;17437;47.188;8.896;2022-09-09T07:02:23;15.90;99.90
30678;DHT22;17437;47.188;8.896;2022-09-09T07:04:55;15.90;99.90
30678;DHT22;17437;47.188;8.896;2022-09-09T07:07:28;15.90;99.90
30678;DHT22;17437;47.188;8.896;2022-09-09T07:10:00;15.90;99.90
30678;DHT22;17437;47.188;8.896;2022-09-09T07:12:32;15.90;99.90
30678;DHT22;17437;47.188;8.896;2022-09-09T07:15:06;15.90;99.90
30678;DHT22;17437;47.188;8.896;2022-09-09T07:17:37;16.00;99.90
30678;DHT22;17437;47.188;8.896;2022-09-09T07:20:09;16.10;99.90
30678;DHT22;17437;47.188;8.896;2022-09-09T07:22:41;16.20;99.90
30678;DHT22;17437;47.188;8.896;2022-09-09T07:25:13;16.30;99.90
30678;DHT22;17437;47.188;8.896;2022-09-09T07:27:46;16.50;99.90
30678;DHT22;17437;47.188;8.896;2022-09-09T07:30:18;16.60;99.90
30678;DHT22;17437;47.188;8.896;2022-09-09T07:32:52;16.70;99.90
30678;DHT22;17437;47.188;8.896;2022-09-09T07:35:24;16.80;99.90
30678;DHT22;17437;47.188;8.896;2022-09-09T07:37:57;16.80;99.90
30678;DHT22;17437;47.188;8.896;2022-09-09T07:40:28;16.90;99.90
30678;DHT22;17437;47.188;8.896;2022-09-09T07:43:00;16.90;99.90
30678;DHT22;17437;47.188;8.896;2022-09-09T07:45:32;17.00;99.90
30678;DHT22;17437;47.188;8.896;2022-09-09T07:48:05;17.10;99.90
30678;DHT22;17437;47.188;8.896;2022-09-09T07:50:36;17.10;99.90
30678;DHT22;17437;47.188;8.896;2022-09-09T07:53:08;17.20;99.90
30678;DHT22;17437;47.188;8.896;2022-09-09T07:55:40;17.30;99.90
30678;DHT22;17437;47.188;8.896;2022-09-09T07:58:11;17.40;99.90
30678;DHT22;17437;47.188;8.896;2022-09-09T08:00:42;17.60;99.90
30678;DHT22;17437;47.188;8.896;2022-09-09T08:03:14;17.90;99.90
30678;DHT22;17437;47.188;8.896;2022-09-09T08:05:47;18.00;99.90
30678;DHT22;17437;47.188;8.896;2022-09-09T08:08:18;18.10;99.90
30678;DHT22;17437;47.188;8.896;2022-09-09T08:10:50;18.20;99.90
30678;DHT22;17437;47.188;8.896;2022-09-09T08:13:23;18.10;99.90
30678;DHT22;17437;47.188;8.896;2022-09-09T08:15:54;18.00;99.90
30678;DHT22;17437;47.188;8.896;2022-09-09T08:18:27;17.90;99.90
30678;DHT22;17437;47.188;8.896;2022-09-09T08:21:04;17.90;99.90
30678;DHT22;17437;47.188;8.896;2022-09-09T08:23:37;17.90;99.90
30678;DHT22;17437;47.188;8.896;2022-09-09T08:26:12;18.00;99.90
30678;DHT22;17437;47.188;8.896;2022-09-09T08:28:44;18.00;99.90
30678;DHT22;17437;47.188;8.896;2022-09-09T08:31:18;18.00;99.90
30678;DHT22;17437;47.188;8.896;2022-09-09T08:33:50;18.20;99.90
30678;DHT22;17437;47.188;8.896;2022-09-09T08:36:24;18.20;99.90
30678;DHT22;17437;47.188;8.896;2022-09-09T08:38:57;18.30;99.90
30678;DHT22;17437;47.188;8.896;2022-09-09T08:41:39;18.40;99.90
30678;DHT22;17437;47.188;8.896;2022-09-09T08:44:14;18.60;99.90
30678;DHT22;17437;47.188;8.896;2022-09-09T08:46:51;18.60;99.90
30678;DHT22;17437;47.188;8.896;2022-09-09T08:49:40;18.70;99.90
30678;DHT22;17437;47.188;8.896;2022-09-09T08:52:15;18.70;99.90
30678;DHT22;17437;47.188;8.896;2022-09-09T08:54:48;18.70;99.90
30678;DHT22;17437;47.188;8.896;2022-09-09T08:57:24;18.70;99.90
30678;DHT22;17437;47.188;8.896;2022-09-09T08:59:56;18.80;99.90
30678;DHT22;17437;47.188;8.896;2022-09-09T09:02:32;18.90;99.90
30678;DHT22;17437;47.188;8.896;2022-09-09T09:05:11;18.80;99.90
30678;DHT22;17437;47.188;8.896;2022-09-09T09:07:50;18.70;99.90
30678;DHT22;17437;47.188;8.896;2022-09-09T09:10:31;19.00;99.90
30678;DHT22;17437;47.188;8.896;2022-09-09T09:13:02;19.30;99.90
30678;DHT22;17437;47.188;8.896;2022-09-09T09:15:36;19.30;99.90
30678;DHT22;17437;47.188;8.896;2022-09-09T09:18:10;19.30;99.90
30678;DHT22;17437;47.188;8.896;2022-09-09T09:20:49;19.20;99.90
30678;DHT22;17437;47.188;8.896;2022-09-09T09:23:24;19.10;99.90
30678;DHT22;17437;47.188;8.896;2022-09-09T09:25:59;19.20;99.90
30678;DHT22;17437;47.188;8.896;2022-09-09T09:28:33;19.20;99.90
30678;DHT22;17437;47.188;8.896;2022-09-09T09:31:08;19.00;99.90
30678;DHT22;17437;47.188;8.896;2022-09-09T09:33:46;19.00;99.90
30678;DHT22;17437;47.188;8.896;2022-09-09T09:36:18;19.00;99.90
30678;DHT22;17437;47.188;8.896;2022-09-09T09:38:55;19.00;99.90
30678;DHT22;17437;47.188;8.896;2022-09-09T09:41:34;19.10;99.90
30678;DHT22;17437;47.188;8.896;2022-09-09T09:44:21;19.20;99.90
30678;DHT22;17437;47.188;8.896;2022-09-09T09:46:52;19.30;99.90
30678;DHT22;17437;47.188;8.896;2022-09-09T09:49:24;19.40;99.90
30678;DHT22;17437;47.188;8.896;2022-09-09T09:52:00;19.60;99.90
30678;DHT22;17437;47.188;8.896;2022-09-09T09:54:33;19.70;99.90
30678;DHT22;17437;47.188;8.896;2022-09-09T09:57:11;19.80;99.90
30678;DHT22;17437;47.188;8.896;2022-09-09T09:59:43;19.90;99.90
30678;DHT22;17437;47.188;8.896;2022-09-09T10:02:18;20.10;99.90
30678;DHT22;17437;47.188;8.896;2022-09-09T10:05:00;20.30;99.90
30678;DHT22;17437;47.188;8.896;2022-09-09T10:07:32;20.50;99.90
30678;DHT22;17437;47.188;8.896;2022-09-09T10:10:08;20.70;99.90
30678;DHT22;17437;47.188;8.896;2022-09-09T10:12:46;20.80;99.90
30678;DHT22;17437;47.188;8.896;2022-09-09T10:15:29;20.80;99.90
30678;DHT22;17437;47.188;8.896;2022-09-09T10:18:06;20.80;99.90
30678;DHT22;17437;47.188;8.896;2022-09-09T10:20:42;20.90;99.90
30678;DHT22;17437;47.188;8.896;2022-09-09T10:23:24;20.90;99.90
30678;DHT22;17437;47.188;8.896;2022-09-09T10:26:05;21.00;99.90
30678;DHT22;17437;47.188;8.896;2022-09-09T10:28:46;20.90;99.90
30678;DHT22;17437;47.188;8.896;2022-09-09T10:31:21;21.00;99.90
30678;DHT22;17437;47.188;8.896;2022-09-09T10:33:57;21.30;99.90
30678;DHT22;17437;47.188;8.896;2022-09-09T10:36:28;21.50;99.90
30678;DHT22;17437;47.188;8.896;2022-09-09T10:39:03;21.70;99.90
30678;DHT22;17437;47.188;8.896;2022-09-09T10:41:42;21.80;99.90
30678;DHT22;17437;47.188;8.896;2022-09-09T10:44:44;21.80;99.90
30678;DHT22;17437;47.188;8.896;2022-09-09T10:47:24;21.70;99.90
30678;DHT22;17437;47.188;8.896;2022-09-09T10:50:00;21.60;99.90
30678;DHT22;17437;47.188;8.896;2022-09-09T10:52:34;21.10;99.90
30678;DHT22;17437;47.188;8.896;2022-09-09T10:55:10;20.40;99.90
30678;DHT22;17437;47.188;8.896;2022-09-09T10:57:44;19.50;99.90
30678;DHT22;17437;47.188;8.896;2022-09-09T11:00:20;18.70;99.90
30678;DHT22;17437;47.188;8.896;2022-09-09T11:02:55;18.20;99.90
30678;DHT22;17437;47.188;8.896;2022-09-09T11:05:30;17.90;99.90
30678;DHT22;17437;47.188;8.896;2022-09-09T11:08:06;17.70;99.90
30678;DHT22;17437;47.188;8.896;2022-09-09T11:10:42;17.50;99.90
30678;DHT22;17437;47.188;8.896;2022-09-09T11:13:18;17.50;99.90
30678;DHT22;17437;47.188;8.896;2022-09-09T11:15:52;17.50;99.90
30678;DHT22;17437;47.188;8.896;2022-09-09T11:18:24;17.70;99.90
30678;DHT22;17437;47.188;8.896;2022-09-09T11:20:59;18.00;99.90
30678;DHT22;17437;47.188;8.896;2022-09-09T11:23:34;18.20;99.90
30678;DHT22;17437;47.188;8.896;2022-09-09T11:26:11;18.40;99.90
30678;DHT22;17437;47.188;8.896;2022-09-09T11:28:51;18.70;99.90
30678;DHT22;17437;47.188;8.896;2022-09-09T11:31:36;19.00;99.90
30678;DHT22;17437;47.188;8.896;2022-09-09T11:34:20;19.00;99.90
30678;DHT22;17437;47.188;8.896;2022-09-09T11:37:00;19.00;99.90
30678;DHT22;17437;47.188;8.896;2022-09-09T11:39:49;18.90;99.90
30678;DHT22;17437;47.188;8.896;2022-09-09T11:42:23;18.90;99.90
30678;DHT22;17437;47.188;8.896;2022-09-09T11:44:55;18.80;99.90
30678;DHT22;17437;47.188;8.896;2022-09-09T11:47:29;18.60;99.90
30678;DHT22;17437;47.188;8.896;2022-09-09T11:50:22;18.50;99.90
30678;DHT22;17437;47.188;8.896;2022-09-09T11:52:44;18.20;99.90
30678;DHT22;17437;47.188;8.896;2022-09-09T11:55:27;18.00;99.90
30678;DHT22;17437;47.188;8.896;2022-09-09T11:58:00;17.80;99.90
30678;DHT22;17437;47.188;8.896;2022-09-09T12:00:33;17.70;99.90
30678;DHT22;17437;47.188;8.896;2022-09-09T12:03:06;17.60;99.90
30678;DHT22;17437;47.188;8.896;2022-09-09T12:05:40;17.70;99.90
30678;DHT22;17437;47.188;8.896;2022-09-09T12:08:16;17.80;99.90
30678;DHT22;17437;47.188;8.896;2022-09-09T12:10:55;17.90;99.90
30678;DHT22;17437;47.188;8.896;2022-09-09T12:13:27;17.90;99.90
30678;DHT22;17437;47.188;8.896;2022-09-09T12:16:01;17.90;99.90
30678;DHT22;17437;47.188;8.896;2022-09-09T12:18:36;18.10;99.90
30678;DHT22;17437;47.188;8.896;2022-09-09T12:21:13;18.20;99.90
30678;DHT22;17437;47.188;8.896;2022-09-09T12:23:47;18.40;99.90
30678;DHT22;17437;47.188;8.896;2022-09-09T12:26:27;18.50;99.90
30678;DHT22;17437;47.188;8.896;2022-09-09T12:29:10;18.50;99.90
30678;DHT22;17437;47.188;8.896;2022-09-09T12:31:46;18.60;99.90
30678;DHT22;17437;47.188;8.896;2022-09-09T12:34:20;18.50;99.90
30678;DHT22;17437;47.188;8.896;2022-09-09T12:36:55;18.50;99.90
30678;DHT22;17437;47.188;8.896;2022-09-09T12:39:29;18.50;99.90
30678;DHT22;17437;47.188;8.896;2022-09-09T12:42:01;18.50;99.90
30678;DHT22;17437;47.188;8.896;2022-09-09T12:44:34;18.50;99.90
30678;DHT22;17437;47.188;8.896;2022-09-09T12:47:06;18.50;99.90
30678;DHT22;17437;47.188;8.896;2022-09-09T12:49:38;18.40;99.90
30678;DHT22;17437;47.188;8.896;2022-09-09T12:52:13;18.40;99.90
30678;DHT22;17437;47.188;8.896;2022-09-09T12:54:46;18.50;99.90
30678;DHT22;17437;47.188;8.896;2022-09-09T12:57:18;18.70;99.90
30678;DHT22;17437;47.188;8.896;2022-09-09T12:59:50;18.80;99.90
30678;DHT22;17437;47.188;8.896;2022-09-09T13:02:23;18.90;99.90
30678;DHT22;17437;47.188;8.896;2022-09-09T13:04:55;19.00;99.90
30678;DHT22;17437;47.188;8.896;2022-09-09T13:07:29;19.20;99.90
30678;DHT22;17437;47.188;8.896;2022-09-09T13:10:01;19.40;99.90
30678;DHT22;17437;47.188;8.896;2022-09-09T13:12:32;19.60;99.90
30678;DHT22;17437;47.188;8.896;2022-09-09T13:15:05;19.60;99.90
30678;DHT22;17437;47.188;8.896;2022-09-09T13:17:38;19.60;99.90
30678;DHT22;17437;47.188;8.896;2022-09-09T13:20:17;19.70;99.90
30678;DHT22;17437;47.188;8.896;2022-09-09T13:22:50;19.80;99.90
30678;DHT22;17437;47.188;8.896;2022-09-09T13:25:26;19.80;99.90
30678;DHT22;17437;47.188;8.896;2022-09-09T13:28:00;20.00;99.90
30678;DHT22;17437;47.188;8.896;2022-09-09T13:30:34;19.90;99.90
30678;DHT22;17437;47.188;8.896;2022-09-09T13:33:21;19.90;99.90
30678;DHT22;17437;47.188;8.896;2022-09-09T13:35:55;20.10;99.90
30678;DHT22;17437;47.188;8.896;2022-09-09T13:38:29;20.00;99.90
30678;DHT22;17437;47.188;8.896;2022-09-09T13:41:02;20.00;99.90
30678;DHT22;17437;47.188;8.896;2022-09-09T13:43:37;20.10;99.90
30678;DHT22;17437;47.188;8.896;2022-09-09T13:46:30;20.30;99.90
30678;DHT22;17437;47.188;8.896;2022-09-09T13:49:03;20.30;99.90
30678;DHT22;17437;47.188;8.896;2022-09-09T13:51:36;20.30;99.90
30678;DHT22;17437;47.188;8.896;2022-09-09T13:54:11;20.30;99.90
30678;DHT22;17437;47.188;8.896;2022-09-09T13:56:44;20.20;99.90
30678;DHT22;17437;47.188;8.896;2022-09-09T13:59:17;20.20;99.90
30678;DHT22;17437;47.188;8.896;2022-09-09T14:01:50;20.10;99.90
30678;DHT22;17437;47.188;8.896;2022-09-09T14:04:22;20.00;99.90
30678;DHT22;17437;47.188;8.896;2022-09-09T14:06:54;20.00;99.90
30678;DHT22;17437;47.188;8.896;2022-09-09T14:09:26;20.00;99.90
30678;DHT22;17437;47.188;8.896;2022-09-09T14:11:57;20.00;99.90
30678;DHT22;17437;47.188;8.896;2022-09-09T14:14:30;20.10;99.90
30678;DHT22;17437;47.188;8.896;2022-09-09T14:17:01;20.00;99.90
30678;DHT22;17437;47.188;8.896;2022-09-09T14:19:35;20.00;99.90
30678;DHT22;17437;47.188;8.896;2022-09-09T14:22:07;19.90;99.90
30678;DHT22;17437;47.188;8.896;2022-09-09T14:24:38;19.90;99.90
30678;DHT22;17437;47.188;8.896;2022-09-09T14:27:09;19.90;99.90
30678;DHT22;17437;47.188;8.896;2022-09-09T14:29:41;20.00;99.90
30678;DHT22;17437;47.188;8.896;2022-09-09T14:32:13;20.00;99.90
30678;DHT22;17437;47.188;8.896;2022-09-09T14:34:45;20.10;99.90
30678;DHT22;17437;47.188;8.896;2022-09-09T14:37:18;20.30;99.90
30678;DHT22;17437;47.188;8.896;2022-09-09T14:39:50;20.40;99.90
30678;DHT22;17437;47.188;8.896;2022-09-09T14:42:22;20.60;99.90
30678;DHT22;17437;47.188;8.896;2022-09-09T14:44:54;20.60;99.90
30678;DHT22;17437;47.188;8.896;2022-09-09T14:47:26;20.60;99.90
30678;DHT22;17437;47.188;8.896;2022-09-09T14:49:57;20.60;99.90
30678;DHT22;17437;47.188;8.896;2022-09-09T14:52:31;20.70;99.90
30678;DHT22;17437;47.188;8.896;2022-09-09T14:55:03;20.70;99.90
30678;DHT22;17437;47.188;8.896;2022-09-09T14:57:35;20.60;99.90
30678;DHT22;17437;47.188;8.896;2022-09-09T15:00:09;20.60;99.90
30678;DHT22;17437;47.188;8.896;2022-09-09T15:02:41;20.50;99.90
30678;DHT22;17437;47.188;8.896;2022-09-09T15:05:13;20.40;99.90
30678;DHT22;17437;47.188;8.896;2022-09-09T15:07:46;20.30;99.90
30678;DHT22;17437;47.188;8.896;2022-09-09T15:10:18;20.30;99.90
30678;DHT22;17437;47.188;8.896;2022-09-09T15:12:49;20.30;99.90
30678;DHT22;17437;47.188;8.896;2022-09-09T15:15:20;20.40;99.90
30678;DHT22;17437;47.188;8.896;2022-09-09T15:17:52;20.60;99.90
30678;DHT22;17437;47.188;8.896;2022-09-09T15:20:23;20.70;99.90
30678;DHT22;17437;47.188;8.896;2022-09-09T15:22:55;20.70;99.90
30678;DHT22;17437;47.188;8.896;2022-09-09T15:25:26;20.70;99.90
30678;DHT22;17437;47.188;8.896;2022-09-09T15:27:58;20.80;99.90
30678;DHT22;17437;47.188;8.896;2022-09-09T15:30:29;20.80;99.90
30678;DHT22;17437;47.188;8.896;2022-09-09T15:33:01;20.80;99.90
30678;DHT22;17437;47.188;8.896;2022-09-09T15:35:32;20.80;99.90
30678;DHT22;17437;47.188;8.896;2022-09-09T15:38:04;20.90;99.90
30678;DHT22;17437;47.188;8.896;2022-09-09T15:40:35;21.00;99.90
30678;DHT22;17437;47.188;8.896;2022-09-09T15:43:08;21.00;99.90
30678;DHT22;17437;47.188;8.896;2022-09-09T15:45:40;20.90;99.90
30678;DHT22;17437;47.188;8.896;2022-09-09T15:48:12;20.70;99.90
30678;DHT22;17437;47.188;8.896;2022-09-09T15:50:43;20.60;99.90
30678;DHT22;17437;47.188;8.896;2022-09-09T15:53:14;20.50;99.90
30678;DHT22;17437;47.188;8.896;2022-09-09T15:55:46;20.60;99.90
30678;DHT22;17437;47.188;8.896;2022-09-09T15:58:19;20.50;99.90
30678;DHT22;17437;47.188;8.896;2022-09-09T16:00:50;20.50;99.90
30678;DHT22;17437;47.188;8.896;2022-09-09T16:03:22;20.50;99.90
30678;DHT22;17437;47.188;8.896;2022-09-09T16:05:53;20.70;99.90
30678;DHT22;17437;47.188;8.896;2022-09-09T16:08:25;20.80;99.90
30678;DHT22;17437;47.188;8.896;2022-09-09T16:10:56;20.90;99.90
30678;DHT22;17437;47.188;8.896;2022-09-09T16:13:27;20.90;99.90